createdAt,value
2019-05-02T00:00:41.842Z,47.19
2019-05-02T00:01:41.818Z,47.00
2019-05-02T00:02:41.809Z,47.09
2019-05-02T00:03:42.939Z,47.19
2019-05-02T00:04:41.786Z,47.09
2019-05-02T00:05:41.781Z,47.42
2019-05-02T00:06:42.838Z,47.42
2019-05-02T00:07:41.755Z,47.32
2019-05-02T00:08:41.810Z,47.32
2019-05-02T00:09:47.112Z,47.12
2019-05-02T00:10:42.721Z,47.82
2019-05-02T00:11:41.714Z,47.72
2019-05-02T00:12:41.704Z,47.60
2019-05-02T00:13:41.697Z,47.52
2019-05-02T00:14:41.700Z,47.42
2019-05-02T00:15:41.671Z,47.52
2019-05-02T00:16:45.312Z,47.42
2019-05-02T00:17:42.649Z,47.42
2019-05-02T00:18:41.638Z,47.52
2019-05-02T00:19:45.137Z,47.22
2019-05-02T00:20:42.616Z,46.81
2019-05-02T00:21:43.092Z,46.81
2019-05-02T00:22:41.601Z,47.22
2019-05-02T00:23:41.587Z,47.12
2019-05-02T00:24:41.624Z,47.12
2019-05-02T00:25:41.566Z,47.12
2019-05-02T00:26:41.552Z,47.12
2019-05-02T00:27:41.541Z,47.12
2019-05-02T00:28:42.873Z,46.81
2019-05-02T00:29:42.534Z,46.81
2019-05-02T00:30:41.514Z,47.12
2019-05-02T00:31:41.780Z,47.02
2019-05-02T00:32:41.492Z,46.92
2019-05-02T00:33:41.477Z,47.12
2019-05-02T00:34:41.489Z,47.02
2019-05-02T00:35:46.055Z,47.02
2019-05-02T00:36:42.446Z,47.22
2019-05-02T00:37:41.441Z,46.81
2019-05-02T00:38:41.423Z,46.92
2019-05-02T00:39:45.189Z,46.92
2019-05-02T00:40:42.403Z,46.92
2019-05-02T00:41:41.398Z,46.81
2019-05-02T00:42:41.397Z,47.12
2019-05-02T00:43:41.380Z,46.72
2019-05-02T00:44:42.038Z,46.92
2019-05-02T00:45:42.368Z,46.94
2019-05-02T00:46:41.340Z,46.73
2019-05-02T00:47:42.148Z,46.94
2019-05-02T00:48:42.324Z,46.81
2019-05-02T00:49:41.309Z,46.81
2019-05-02T00:50:45.299Z,47.02
2019-05-02T00:51:42.287Z,47.12
2019-05-02T00:52:41.307Z,47.12
2019-05-02T00:53:44.426Z,46.94
2019-05-02T00:54:42.262Z,46.84
2019-05-02T00:55:41.263Z,46.61
2019-05-02T00:56:44.040Z,46.64
2019-05-02T00:57:41.229Z,47.12
2019-05-02T00:58:41.214Z,46.94
2019-05-02T00:59:42.363Z,46.84
2019-05-02T01:00:41.210Z,46.84
2019-05-02T01:01:41.188Z,46.61
2019-05-02T01:02:41.876Z,46.23
2019-05-02T01:03:41.163Z,46.64
2019-05-02T01:04:41.152Z,46.44
2019-05-02T01:05:41.178Z,46.03
2019-05-02T01:06:44.674Z,46.64
2019-05-02T01:07:42.122Z,46.03
2019-05-02T01:08:41.113Z,46.44
2019-05-02T01:09:42.137Z,46.64
2019-05-02T01:10:42.106Z,46.44
2019-05-02T01:11:41.080Z,46.23
2019-05-02T01:12:44.461Z,46.03
2019-05-02T01:13:41.058Z,46.34
2019-05-02T01:14:41.052Z,46.34
2019-05-02T01:15:44.004Z,46.14
2019-05-02T01:16:41.027Z,46.84
2019-05-02T01:17:41.024Z,46.34
2019-05-02T01:18:42.455Z,46.23
2019-05-02T01:19:41.008Z,46.23
2019-05-02T01:20:40.985Z,46.14
2019-05-02T01:21:40.990Z,46.14
2019-05-02T01:22:40.966Z,45.94
2019-05-02T01:23:40.962Z,46.03
2019-05-02T01:24:41.669Z,46.34
2019-05-02T01:25:40.937Z,46.61
2019-05-02T01:26:40.949Z,46.22
2019-05-02T01:27:42.441Z,46.11
2019-05-02T01:28:40.907Z,45.69
2019-05-02T01:29:40.890Z,44.56
2019-05-02T01:30:42.501Z,45.06
2019-05-02T01:31:40.875Z,44.64
2019-05-02T01:32:40.876Z,43.42
2019-05-02T01:33:41.789Z,43.02
2019-05-02T01:34:40.841Z,42.69
2019-05-02T01:35:40.832Z,41.67
2019-05-02T01:36:41.222Z,41.67
2019-05-02T01:37:40.822Z,41.35
2019-05-02T01:38:40.795Z,41.83
2019-05-02T01:39:42.764Z,41.43
2019-05-02T01:40:40.781Z,41.03
2019-05-02T01:41:40.766Z,40.53
2019-05-02T01:42:47.368Z,40.41
2019-05-02T01:43:41.739Z,40.61
2019-05-02T01:44:40.734Z,40.81
2019-05-02T01:45:41.876Z,41.03
2019-05-02T01:46:40.711Z,40.71
2019-05-02T01:47:40.716Z,40.43
2019-05-02T01:48:45.582Z,40.33
2019-05-02T01:49:41.677Z,40.23
2019-05-02T01:50:40.665Z,40.33
2019-05-02T01:51:41.828Z,40.83
2019-05-02T01:52:41.679Z,40.65
2019-05-02T01:53:40.632Z,41.05
2019-05-02T01:54:45.407Z,41.55
2019-05-02T01:55:41.611Z,41.24
2019-05-02T01:56:40.606Z,41.15
2019-05-02T01:57:44.819Z,41.75
2019-05-02T01:58:41.595Z,41.75
2019-05-02T01:59:40.572Z,41.57
2019-05-02T02:00:44.467Z,41.38
2019-05-02T02:01:40.548Z,41.77
2019-05-02T02:02:40.540Z,41.38
2019-05-02T02:03:45.621Z,42.07
2019-05-02T02:04:41.519Z,41.77
2019-05-02T02:05:40.507Z,42.30
2019-05-02T02:06:43.423Z,41.99
2019-05-02T02:07:40.481Z,41.69
2019-05-02T02:08:40.529Z,41.60
2019-05-02T02:09:43.927Z,41.09
2019-05-02T02:10:43.861Z,41.89
2019-05-02T02:11:40.442Z,41.60
2019-05-02T02:12:42.932Z,41.49
2019-05-02T02:13:41.442Z,41.89
2019-05-02T02:14:40.421Z,41.91
2019-05-02T02:15:40.404Z,41.89
2019-05-02T02:16:40.605Z,42.10
2019-05-02T02:17:40.378Z,41.91
2019-05-02T02:18:40.371Z,42.19
2019-05-02T02:19:40.717Z,42.52
2019-05-02T02:20:40.351Z,42.61
2019-05-02T02:21:42.827Z,42.91
2019-05-02T02:22:41.090Z,42.91
2019-05-02T02:23:40.336Z,42.52
2019-05-02T02:24:40.320Z,42.52
2019-05-02T02:25:40.298Z,42.72
2019-05-02T02:26:43.609Z,42.72
2019-05-02T02:27:41.272Z,42.82
2019-05-02T02:28:40.273Z,42.32
2019-05-02T02:29:44.031Z,42.54
2019-05-02T02:30:41.240Z,42.41
2019-05-02T02:31:46.926Z,42.24
2019-05-02T02:32:41.222Z,42.63
2019-05-02T02:33:40.801Z,42.54
2019-05-02T02:34:41.224Z,42.33
2019-05-02T02:35:49.434Z,43.14
2019-05-02T02:36:41.178Z,43.14
2019-05-02T02:37:52.123Z,43.04
2019-05-02T02:38:41.157Z,43.04
2019-05-02T02:39:40.144Z,43.24
2019-05-02T02:40:40.158Z,43.14
2019-05-02T02:41:45.224Z,43.16
2019-05-02T02:42:41.116Z,43.36
2019-05-02T02:43:40.119Z,43.96
2019-05-02T02:44:41.700Z,43.46
2019-05-02T02:45:40.097Z,43.86
2019-05-02T02:46:40.244Z,43.56
2019-05-02T02:47:40.068Z,43.96
2019-05-02T02:48:41.049Z,43.96
2019-05-02T02:49:40.046Z,43.96
2019-05-02T02:50:42.942Z,43.46
2019-05-02T02:51:40.031Z,43.96
2019-05-02T02:52:44.663Z,43.56
2019-05-02T02:53:41.004Z,43.48
2019-05-02T02:54:43.469Z,43.88
2019-05-02T02:55:40.006Z,43.98
2019-05-02T02:56:40.908Z,43.98
2019-05-02T02:57:39.954Z,43.66
2019-05-02T02:58:45.535Z,43.68
2019-05-02T02:59:40.934Z,43.78
2019-05-02T03:00:41.400Z,43.98
2019-05-02T03:01:40.929Z,43.48
2019-05-02T03:02:47.698Z,43.48
2019-05-02T03:03:40.895Z,43.68
2019-05-02T03:04:43.976Z,43.68
2019-05-02T03:05:39.876Z,43.68
2019-05-02T03:06:44.769Z,43.48
2019-05-02T03:07:40.849Z,43.38
2019-05-02T03:08:46.201Z,43.78
2019-05-02T03:09:40.829Z,43.28
2019-05-02T03:10:44.937Z,43.48
2019-05-02T03:11:40.828Z,43.50
2019-05-02T03:12:41.459Z,43.28
2019-05-02T03:13:51.553Z,43.40
2019-05-02T03:14:46.618Z,43.60
2019-05-02T03:15:40.764Z,43.80
2019-05-02T03:16:45.950Z,43.68
2019-05-02T03:17:40.752Z,43.40
2019-05-02T03:18:43.099Z,43.80
2019-05-02T03:19:39.725Z,43.80
2019-05-02T03:20:40.564Z,43.90
2019-05-02T03:21:39.724Z,44.00
2019-05-02T03:22:41.965Z,43.80
2019-05-02T03:23:39.687Z,44.00
2019-05-02T03:24:44.218Z,43.90
2019-05-02T03:25:50.723Z,43.70
2019-05-02T03:26:40.671Z,44.00
2019-05-02T03:27:40.414Z,43.90
2019-05-02T03:28:39.631Z,43.60
2019-05-02T03:29:43.877Z,43.70
2019-05-02T03:30:39.604Z,43.70
2019-05-02T03:31:39.601Z,43.70
2019-05-02T03:32:39.611Z,43.80
2019-05-02T03:33:54.425Z,43.50
2019-05-02T03:34:53.100Z,43.42
2019-05-02T03:35:44.782Z,43.82
2019-05-02T03:36:40.599Z,43.70
2019-05-02T03:37:44.796Z,43.62
2019-05-02T03:38:40.517Z,43.40
2019-05-02T03:39:39.652Z,43.42
2019-05-02T03:40:41.392Z,43.42
2019-05-02T03:41:39.485Z,43.60
2019-05-02T03:42:45.176Z,43.42
2019-05-02T03:43:40.461Z,43.42
2019-05-02T03:44:39.454Z,43.52
2019-05-02T03:45:42.807Z,43.32
2019-05-02T03:46:39.431Z,43.52
2019-05-02T03:47:43.771Z,43.42
2019-05-02T03:48:40.462Z,43.52
2019-05-02T03:49:40.812Z,43.62
2019-05-02T03:50:40.429Z,43.72
2019-05-02T03:51:39.461Z,43.62
2019-05-02T03:52:43.666Z,43.72
2019-05-02T03:53:40.469Z,43.82
2019-05-02T03:54:49.103Z,43.92
2019-05-02T03:55:40.362Z,43.72
2019-05-02T03:56:44.775Z,43.92
2019-05-02T03:57:42.151Z,44.02
2019-05-02T03:58:39.318Z,43.52
2019-05-02T03:59:41.887Z,43.82
2019-05-02T04:00:39.292Z,43.32
2019-05-02T04:01:41.414Z,44.02
2019-05-02T04:02:39.270Z,43.32
2019-05-02T04:03:40.769Z,43.72
2019-05-02T04:04:39.241Z,44.43
2019-05-02T04:05:40.563Z,43.92
2019-05-02T04:06:39.213Z,44.32
2019-05-02T04:07:40.415Z,44.43
2019-05-02T04:08:39.196Z,44.53
2019-05-02T04:09:41.991Z,44.32
2019-05-02T04:10:39.171Z,44.53
2019-05-02T04:11:40.972Z,44.12
2019-05-02T04:12:39.161Z,44.02
2019-05-02T04:13:39.155Z,44.12
2019-05-02T04:14:39.663Z,44.12
2019-05-02T04:15:39.117Z,44.63
2019-05-02T04:16:39.119Z,44.32
2019-05-02T04:17:39.107Z,44.35
2019-05-02T04:18:39.109Z,44.63
2019-05-02T04:19:39.074Z,43.32
2019-05-02T04:20:43.658Z,43.52
2019-05-02T04:21:40.046Z,43.72
2019-05-02T04:22:42.768Z,43.10
2019-05-02T04:23:40.054Z,42.80
2019-05-02T04:24:39.025Z,42.27
2019-05-02T04:25:39.019Z,42.07
2019-05-02T04:26:38.993Z,42.35
2019-05-02T04:27:38.986Z,41.83
2019-05-02T04:28:38.989Z,40.93
2019-05-02T04:29:38.964Z,41.11
2019-05-02T04:30:38.958Z,40.29
2019-05-02T04:31:38.939Z,39.89
2019-05-02T04:32:42.817Z,39.99
2019-05-02T04:33:38.928Z,40.21
2019-05-02T04:34:38.912Z,39.99
2019-05-02T04:35:38.892Z,40.29
2019-05-02T04:36:39.005Z,39.69
2019-05-02T04:37:40.936Z,39.79
2019-05-02T04:38:46.815Z,39.39
2019-05-02T04:39:39.853Z,39.51
2019-05-02T04:40:41.830Z,39.79
2019-05-02T04:41:42.494Z,39.51
2019-05-02T04:42:39.432Z,39.51
2019-05-02T04:43:40.694Z,40.29
2019-05-02T04:44:52.982Z,40.21
2019-05-02T04:45:55.283Z,40.11
2019-05-02T04:46:39.779Z,40.11
2019-05-02T04:47:39.007Z,39.81
2019-05-02T04:48:43.841Z,40.01
2019-05-02T04:49:39.761Z,40.01
2019-05-02T04:50:38.739Z,40.21
2019-05-02T04:51:38.728Z,40.71
2019-05-02T04:52:48.452Z,40.71
2019-05-02T04:53:45.060Z,40.03
2019-05-02T04:54:39.687Z,38.12
2019-05-02T04:55:38.686Z,37.82
2019-05-02T04:56:42.097Z,37.32
2019-05-02T04:57:47.322Z,37.74
2019-05-02T04:58:40.619Z,37.72
2019-05-02T04:59:39.449Z,38.64
2019-05-02T05:00:39.360Z,39.64
2019-05-02T05:01:48.362Z,39.95
2019-05-02T05:02:40.182Z,40.75
2019-05-02T05:03:38.605Z,41.45
2019-05-02T05:04:45.769Z,42.07
2019-05-02T05:05:40.365Z,42.07
2019-05-02T05:06:40.857Z,42.58
2019-05-02T05:07:44.471Z,43.48
2019-05-02T05:08:41.728Z,43.68
2019-05-02T05:09:39.910Z,44.28
2019-05-02T05:10:41.372Z,44.99
2019-05-02T05:11:39.509Z,44.68
2019-05-02T05:12:41.749Z,44.38
2019-05-02T05:13:38.494Z,44.08
2019-05-02T05:14:43.073Z,45.39
2019-05-02T05:15:48.481Z,45.69
2019-05-02T05:16:40.050Z,45.89
2019-05-02T05:17:38.454Z,45.49
2019-05-02T05:18:38.432Z,45.59
2019-05-02T05:19:38.443Z,45.39
2019-05-02T05:20:40.403Z,46.09
2019-05-02T05:21:38.400Z,45.79
2019-05-02T05:22:44.373Z,46.39
2019-05-02T05:23:39.378Z,46.59
2019-05-02T05:24:42.150Z,46.49
2019-05-02T05:25:38.359Z,46.19
2019-05-02T05:26:42.750Z,46.49
2019-05-02T05:27:38.332Z,46.09
2019-05-02T05:28:40.602Z,46.49
2019-05-02T05:29:39.330Z,46.29
2019-05-02T05:30:45.143Z,46.09
2019-05-02T05:31:39.288Z,46.19
2019-05-02T05:32:38.287Z,46.61
2019-05-02T05:33:38.272Z,46.01
2019-05-02T05:34:38.271Z,46.11
2019-05-02T05:35:38.598Z,46.19
2019-05-02T05:36:38.239Z,46.22
2019-05-02T05:37:38.312Z,45.81
2019-05-02T05:38:40.472Z,45.21
2019-05-02T05:39:38.313Z,46.11
2019-05-02T05:40:38.198Z,45.01
2019-05-02T05:41:42.654Z,44.51
2019-05-02T05:42:39.170Z,44.81
2019-05-02T05:43:38.242Z,45.03
2019-05-02T05:44:39.870Z,44.71
2019-05-02T05:45:50.755Z,44.32
2019-05-02T05:46:42.470Z,45.43
2019-05-02T05:47:38.134Z,45.81
2019-05-02T05:48:40.808Z,45.53
2019-05-02T05:49:38.104Z,46.11
2019-05-02T05:50:41.370Z,46.01
2019-05-02T05:51:38.074Z,45.83
2019-05-02T05:52:42.281Z,47.24
2019-05-02T05:53:38.057Z,46.73
2019-05-02T05:54:41.631Z,46.03
2019-05-02T05:55:38.402Z,46.34
2019-05-02T05:56:42.943Z,45.94
2019-05-02T05:57:39.011Z,46.34
2019-05-02T05:58:39.985Z,46.44
2019-05-02T05:59:39.011Z,45.63
2019-05-02T06:00:38.143Z,46.14
2019-05-02T06:01:38.405Z,46.54
2019-05-02T06:02:52.726Z,45.43
2019-05-02T06:03:44.566Z,45.73
2019-05-02T06:04:38.930Z,45.53
2019-05-02T06:05:41.010Z,45.53
2019-05-02T06:06:37.908Z,45.63
2019-05-02T06:07:41.881Z,45.73
2019-05-02T06:08:38.892Z,45.63
2019-05-02T06:09:37.877Z,45.43
2019-05-02T06:10:39.048Z,45.23
2019-05-02T06:11:38.854Z,46.94
2019-05-02T06:12:37.844Z,46.84
2019-05-02T06:13:38.186Z,46.84
2019-05-02T06:14:37.839Z,47.04
2019-05-02T06:15:39.025Z,48.95
2019-05-02T06:16:37.804Z,48.97
2019-05-02T06:17:37.791Z,48.55
2019-05-02T06:18:41.714Z,47.64
2019-05-02T06:19:38.769Z,47.54
2019-05-02T06:20:37.773Z,48.85
2019-05-02T06:21:40.073Z,49.95
2019-05-02T06:22:38.739Z,51.56
2019-05-02T06:23:41.272Z,50.58
2019-05-02T06:24:37.720Z,49.15
2019-05-02T06:25:37.733Z,48.97
2019-05-02T06:26:37.697Z,49.37
2019-05-02T06:27:37.684Z,49.05
2019-05-02T06:28:41.757Z,48.07
2019-05-02T06:29:38.668Z,47.46
2019-05-02T06:30:37.651Z,47.46
2019-05-02T06:31:38.272Z,47.46
2019-05-02T06:32:37.638Z,46.84
2019-05-02T06:33:37.623Z,47.04
2019-05-02T06:34:38.715Z,46.86
2019-05-02T06:35:38.598Z,46.26
2019-05-02T06:36:38.133Z,46.15
2019-05-02T06:37:40.439Z,46.15
2019-05-02T06:38:37.572Z,46.26
2019-05-02T06:39:37.559Z,45.25
2019-05-02T06:40:39.451Z,45.65
2019-05-02T06:41:38.583Z,45.63
2019-05-02T06:42:38.020Z,45.95
2019-05-02T06:43:41.200Z,45.75
2019-05-02T06:44:38.508Z,45.75
2019-05-02T06:45:39.494Z,45.43
2019-05-02T06:46:37.510Z,45.43
2019-05-02T06:47:41.544Z,45.94
2019-05-02T06:48:38.457Z,45.55
2019-05-02T06:49:37.450Z,45.23
2019-05-02T06:50:38.777Z,45.33
2019-05-02T06:51:37.430Z,45.03
2019-05-02T06:52:37.446Z,44.43
2019-05-02T06:53:41.254Z,44.31
2019-05-02T06:54:38.396Z,43.96
2019-05-02T06:55:38.797Z,41.93
2019-05-02T06:56:37.380Z,41.60
2019-05-02T06:57:37.393Z,40.97
2019-05-02T06:58:42.112Z,40.03
2019-05-02T06:59:38.354Z,38.42
2019-05-02T07:00:49.948Z,37.40
2019-05-02T07:01:38.326Z,37.58
2019-05-02T07:02:37.331Z,37.27
2019-05-02T07:03:41.293Z,36.96
2019-05-02T07:04:38.304Z,36.04
2019-05-02T07:05:37.279Z,35.53
2019-05-02T07:06:56.037Z,36.02
2019-05-02T07:07:38.338Z,36.02
2019-05-02T07:08:37.287Z,35.72
2019-05-02T07:09:40.839Z,35.54
2019-05-02T07:10:44.378Z,35.44
2019-05-02T07:11:38.742Z,36.04
2019-05-02T07:12:37.219Z,36.26
2019-05-02T07:13:41.974Z,37.18
2019-05-02T07:14:38.179Z,37.18
2019-05-02T07:15:38.520Z,37.19
2019-05-02T07:16:38.790Z,37.79
2019-05-02T07:17:38.369Z,37.71
2019-05-02T07:18:37.159Z,37.71
2019-05-02T07:19:37.128Z,38.23
2019-05-02T07:20:40.478Z,38.93
2019-05-02T07:21:38.146Z,38.23
2019-05-02T07:22:38.914Z,39.45
2019-05-02T07:23:37.102Z,39.05
2019-05-02T07:24:37.078Z,40.25
2019-05-02T07:25:39.142Z,39.65
2019-05-02T07:26:37.055Z,39.97
2019-05-02T07:27:39.179Z,40.17
2019-05-02T07:28:40.449Z,40.57
2019-05-02T07:29:38.021Z,40.77
2019-05-02T07:30:37.012Z,41.09
2019-05-02T07:31:37.005Z,40.89
2019-05-02T07:32:37.004Z,40.89
2019-05-02T07:33:37.498Z,40.79
2019-05-02T07:34:36.972Z,41.49
2019-05-02T07:35:36.971Z,41.19
2019-05-02T07:36:38.357Z,41.61
2019-05-02T07:37:36.963Z,41.91
2019-05-02T07:38:36.944Z,41.60
2019-05-02T07:39:41.005Z,41.69
2019-05-02T07:40:37.906Z,42.21
2019-05-02T07:41:37.283Z,42.02
2019-05-02T07:42:41.530Z,42.10
2019-05-02T07:43:37.902Z,41.91
2019-05-02T07:44:36.862Z,42.32
2019-05-02T07:45:40.211Z,41.82
2019-05-02T07:46:50.711Z,41.91
2019-05-02T07:47:40.126Z,41.91
2019-05-02T07:48:36.825Z,42.11
2019-05-02T07:49:36.827Z,42.83
2019-05-02T07:50:41.259Z,43.04
2019-05-02T07:51:37.787Z,42.54
2019-05-02T07:52:36.783Z,42.54
2019-05-02T07:53:36.774Z,43.14
2019-05-02T07:54:36.836Z,43.74
2019-05-02T07:55:40.848Z,43.44
2019-05-02T07:56:37.736Z,43.74
2019-05-02T07:57:36.727Z,43.84
2019-05-02T07:58:38.522Z,44.46
2019-05-02T07:59:37.724Z,44.56
2019-05-02T08:00:37.374Z,44.74
2019-05-02T08:01:36.683Z,44.74
2019-05-02T08:02:36.671Z,44.67
2019-05-02T08:03:36.664Z,44.56
2019-05-02T08:04:36.668Z,44.76
2019-05-02T08:05:36.642Z,44.96
2019-05-02T08:06:40.223Z,45.06
2019-05-02T08:07:37.624Z,44.76
2019-05-02T08:08:36.609Z,44.68
2019-05-02T08:09:39.250Z,44.79
2019-05-02T08:10:37.586Z,44.89
2019-05-02T08:11:37.116Z,44.68
2019-05-02T08:12:36.594Z,44.89
2019-05-02T08:13:36.559Z,44.38
2019-05-02T08:14:36.572Z,45.29
2019-05-02T08:15:36.533Z,45.29
2019-05-02T08:16:36.524Z,44.99
2019-05-02T08:17:36.517Z,45.09
2019-05-02T08:18:36.520Z,45.69
2019-05-02T08:19:37.449Z,45.99
2019-05-02T08:20:37.494Z,46.09
2019-05-02T08:21:36.471Z,45.79
2019-05-02T08:22:36.467Z,45.89
2019-05-02T08:23:36.452Z,45.39
2019-05-02T08:24:37.987Z,45.59
2019-05-02T08:25:36.443Z,45.89
2019-05-02T08:26:36.416Z,46.09
2019-05-02T08:27:36.767Z,46.49
2019-05-02T08:28:36.408Z,46.59
2019-05-02T08:29:36.392Z,46.19
2019-05-02T08:30:40.618Z,45.89
2019-05-02T08:31:37.366Z,46.29
2019-05-02T08:32:36.365Z,46.31
2019-05-02T08:33:36.359Z,46.11
2019-05-02T08:34:36.338Z,46.11
2019-05-02T08:35:36.349Z,46.22
2019-05-02T08:36:36.316Z,46.51
2019-05-02T08:37:41.035Z,46.01
2019-05-02T08:38:37.288Z,45.81
2019-05-02T08:39:36.292Z,46.11
2019-05-02T08:40:36.295Z,45.41
2019-05-02T08:41:36.262Z,45.31
2019-05-02T08:42:36.250Z,45.51
2019-05-02T08:43:40.258Z,45.41
2019-05-02T08:44:50.199Z,45.61
2019-05-02T08:45:38.173Z,45.51
2019-05-02T08:46:36.234Z,45.41
2019-05-02T08:47:36.199Z,45.51
2019-05-02T08:48:41.155Z,45.81
2019-05-02T08:49:37.171Z,46.01
2019-05-02T08:50:36.161Z,45.71
2019-05-02T08:51:36.167Z,45.71
2019-05-02T08:52:36.735Z,45.71
2019-05-02T08:53:37.122Z,45.31
2019-05-02T08:54:36.116Z,46.11
2019-05-02T08:55:36.111Z,46.14
2019-05-02T08:56:36.125Z,45.81
2019-05-02T08:57:36.315Z,45.51
2019-05-02T08:58:36.080Z,45.33
2019-05-02T08:59:36.066Z,45.21
2019-05-02T09:00:37.527Z,45.10
2019-05-02T09:01:36.046Z,45.13
2019-05-02T09:02:41.626Z,44.12
2019-05-02T09:03:54.609Z,44.73
2019-05-02T09:04:37.010Z,44.51
2019-05-02T09:05:36.451Z,44.93
2019-05-02T09:06:36.986Z,44.93
2019-05-02T09:07:37.279Z,45.01
2019-05-02T09:08:35.974Z,44.63
2019-05-02T09:09:35.956Z,44.63
2019-05-02T09:10:37.155Z,44.60
2019-05-02T09:11:36.947Z,44.32
2019-05-02T09:12:36.900Z,44.73
2019-05-02T09:13:36.910Z,44.83
2019-05-02T09:14:35.902Z,44.63
2019-05-02T09:15:40.370Z,44.73
2019-05-02T09:16:36.878Z,44.81
2019-05-02T09:17:38.683Z,44.83
2019-05-02T09:18:39.610Z,44.93
2019-05-02T09:19:36.848Z,44.73
2019-05-02T09:20:35.845Z,44.43
2019-05-02T09:21:36.140Z,44.93
2019-05-02T09:22:35.826Z,44.63
2019-05-02T09:23:37.202Z,44.71
2019-05-02T09:24:35.798Z,44.73
2019-05-02T09:25:35.783Z,45.13
2019-05-02T09:26:38.674Z,44.60
2019-05-02T09:27:35.788Z,45.13
2019-05-02T09:28:35.755Z,44.93
2019-05-02T09:29:37.325Z,44.71
2019-05-02T09:30:36.728Z,44.40
2019-05-02T09:31:36.772Z,44.40
2019-05-02T09:32:37.248Z,44.10
2019-05-02T09:33:36.861Z,44.20
2019-05-02T09:34:36.684Z,43.66
2019-05-02T09:35:35.676Z,42.96
2019-05-02T09:36:38.146Z,42.54
2019-05-02T09:37:35.652Z,42.24
2019-05-02T09:38:35.655Z,42.21
2019-05-02T09:39:36.633Z,41.69
2019-05-02T09:40:35.632Z,40.77
2019-05-02T09:41:36.345Z,39.55
2019-05-02T09:42:35.601Z,39.93
2019-05-02T09:43:39.028Z,39.11
2019-05-02T09:44:35.585Z,38.70
2019-05-02T09:45:37.439Z,38.38
2019-05-02T09:46:35.561Z,37.27
2019-05-02T09:47:53.157Z,37.38
2019-05-02T09:48:36.547Z,37.48
2019-05-02T09:49:35.520Z,37.88
2019-05-02T09:50:38.289Z,37.68
2019-05-02T09:51:35.567Z,37.56
2019-05-02T09:52:39.478Z,37.27
2019-05-02T09:53:36.515Z,38.06
2019-05-02T09:54:36.914Z,37.77
2019-05-02T09:55:36.468Z,37.48
2019-05-02T09:56:35.455Z,37.68
2019-05-02T09:57:35.447Z,37.29
2019-05-02T09:58:35.433Z,37.19
2019-05-02T09:59:35.448Z,37.99
2019-05-02T10:00:36.375Z,38.20
2019-05-02T10:01:35.432Z,37.61
2019-05-02T10:02:35.403Z,38.81
2019-05-02T10:03:35.376Z,38.61
2019-05-02T10:04:35.380Z,39.03
2019-05-02T10:05:35.369Z,39.23
2019-05-02T10:06:35.345Z,39.35
2019-05-02T10:07:35.342Z,39.93
2019-05-02T10:08:38.350Z,39.95
2019-05-02T10:09:36.336Z,39.55
2019-05-02T10:10:37.044Z,40.17
2019-05-02T10:11:36.317Z,39.87
2019-05-02T10:12:35.299Z,40.37
2019-05-02T10:13:35.282Z,41.27
2019-05-02T10:14:35.288Z,40.87
2019-05-02T10:15:35.411Z,40.97
2019-05-02T10:16:35.242Z,40.77
2019-05-02T10:17:37.568Z,40.47
2019-05-02T10:18:36.216Z,41.09
2019-05-02T10:19:35.260Z,41.49
2019-05-02T10:20:36.514Z,41.29
2019-05-02T10:21:35.194Z,41.49
2019-05-02T10:22:39.435Z,41.69
2019-05-02T10:23:36.171Z,41.09
2019-05-02T10:24:35.165Z,41.60
2019-05-02T10:25:38.546Z,41.39
2019-05-02T10:26:36.130Z,41.79
2019-05-02T10:27:38.471Z,41.79
2019-05-02T10:28:36.110Z,41.79
2019-05-02T10:29:35.152Z,41.51
2019-05-02T10:30:36.081Z,41.69
2019-05-02T10:31:37.626Z,41.69
2019-05-02T10:32:35.069Z,41.91
2019-05-02T10:33:37.611Z,41.71
2019-05-02T10:34:35.072Z,41.71
2019-05-02T10:35:40.365Z,41.89
2019-05-02T10:36:36.034Z,41.41
2019-05-02T10:37:38.322Z,41.82
2019-05-02T10:38:35.010Z,43.62
2019-05-02T10:39:37.827Z,44.20
2019-05-02T10:40:34.996Z,45.02
2019-05-02T10:41:39.445Z,44.62
2019-05-02T10:42:35.986Z,44.82
2019-05-02T10:43:34.951Z,44.72
2019-05-02T10:44:36.646Z,44.62
2019-05-02T10:45:34.950Z,44.72
2019-05-02T10:46:37.754Z,44.52
2019-05-02T10:47:36.374Z,45.12
2019-05-02T10:48:34.901Z,45.42
2019-05-02T10:49:34.895Z,45.45
2019-05-02T10:50:34.898Z,45.53
2019-05-02T10:51:34.887Z,45.62
2019-05-02T10:52:34.859Z,45.22
2019-05-02T10:53:34.855Z,44.82
2019-05-02T10:54:37.476Z,44.82
2019-05-02T10:55:34.882Z,44.82
2019-05-02T10:56:34.847Z,44.82
2019-05-02T10:57:34.909Z,44.34
2019-05-02T10:58:35.795Z,44.34
2019-05-02T10:59:34.794Z,44.84
2019-05-02T11:00:34.795Z,44.84
2019-05-02T11:01:34.762Z,44.64
2019-05-02T11:02:34.794Z,44.54
2019-05-02T11:03:38.169Z,45.04
2019-05-02T11:04:35.759Z,44.14
2019-05-02T11:05:37.289Z,44.14
2019-05-02T11:06:37.298Z,44.24
2019-05-02T11:07:35.730Z,43.74
2019-05-02T11:08:36.751Z,44.04
2019-05-02T11:09:35.675Z,43.84
2019-05-02T11:10:34.720Z,44.24
2019-05-02T11:11:34.661Z,43.44
2019-05-02T11:12:41.992Z,43.64
2019-05-02T11:13:35.641Z,43.44
2019-05-02T11:14:34.632Z,43.46
2019-05-02T11:15:34.640Z,43.66
2019-05-02T11:16:34.608Z,43.94
2019-05-02T11:17:36.270Z,43.46
2019-05-02T11:18:42.369Z,43.66
2019-05-02T11:19:35.570Z,43.06
2019-05-02T11:20:34.620Z,43.56
2019-05-02T11:21:34.561Z,43.26
2019-05-02T11:22:34.545Z,43.26
2019-05-02T11:23:34.571Z,43.26
2019-05-02T11:24:34.522Z,42.86
2019-05-02T11:25:34.522Z,42.46
2019-05-02T11:26:34.505Z,42.25
2019-05-02T11:27:34.499Z,42.18
2019-05-02T11:28:34.488Z,42.38
2019-05-02T11:29:34.478Z,42.58
2019-05-02T11:30:34.472Z,42.47
2019-05-02T11:31:34.471Z,42.38
2019-05-02T11:32:34.440Z,42.38
2019-05-02T11:33:34.423Z,42.25
2019-05-02T11:34:34.433Z,42.76
2019-05-02T11:35:34.446Z,42.78
2019-05-02T11:36:34.414Z,42.58
2019-05-02T11:37:34.385Z,42.27
2019-05-02T11:38:43.550Z,42.27
2019-05-02T11:39:43.637Z,42.18
2019-05-02T11:40:35.374Z,42.58
2019-05-02T11:41:34.345Z,42.47
2019-05-02T11:42:34.335Z,42.47
2019-05-02T11:43:37.062Z,43.28
2019-05-02T11:44:35.304Z,43.18
2019-05-02T11:45:34.296Z,43.78
2019-05-02T11:46:37.600Z,43.68
2019-05-02T11:47:35.274Z,43.48
2019-05-02T11:48:34.270Z,43.38
2019-05-02T11:49:34.258Z,44.18
2019-05-02T11:50:35.555Z,43.78
2019-05-02T11:51:34.255Z,43.88
2019-05-02T11:52:37.308Z,44.48
2019-05-02T11:53:34.214Z,44.99
2019-05-02T11:54:34.207Z,44.89
2019-05-02T11:55:34.194Z,44.18
2019-05-02T11:56:34.192Z,45.69
2019-05-02T11:57:34.170Z,45.69
2019-05-02T11:58:34.162Z,45.89
2019-05-02T11:59:34.151Z,46.09
2019-05-02T12:00:34.150Z,46.80
2019-05-02T12:01:39.544Z,46.89
2019-05-02T12:02:35.119Z,47.30
2019-05-02T12:03:36.931Z,47.39
2019-05-02T12:04:34.099Z,47.50
2019-05-02T12:05:35.797Z,47.39
2019-05-02T12:06:34.091Z,48.30
2019-05-02T12:07:34.076Z,48.90
2019-05-02T12:08:34.058Z,47.58
2019-05-02T12:09:34.040Z,47.39
2019-05-02T12:10:36.616Z,47.30
2019-05-02T12:11:34.038Z,49.01
2019-05-02T12:12:36.278Z,48.60
2019-05-02T12:13:34.028Z,48.90
2019-05-02T12:14:36.396Z,48.10
2019-05-02T12:15:33.986Z,49.10
2019-05-02T12:16:33.979Z,49.18
2019-05-02T12:17:33.956Z,48.48
2019-05-02T12:18:33.948Z,48.48
2019-05-02T12:19:33.941Z,49.68
2019-05-02T12:20:36.714Z,48.88
2019-05-02T12:21:33.927Z,49.18
2019-05-02T12:22:33.900Z,49.05
2019-05-02T12:23:36.154Z,49.16
2019-05-02T12:24:36.285Z,49.16
2019-05-02T12:25:34.868Z,50.26
2019-05-02T12:26:33.899Z,50.06
2019-05-02T12:27:33.855Z,49.56
2019-05-02T12:28:33.835Z,49.36
2019-05-02T12:29:33.834Z,48.86
2019-05-02T12:30:37.697Z,50.34
2019-05-02T12:31:33.851Z,50.24
2019-05-02T12:32:33.810Z,48.93
2019-05-02T12:33:33.785Z,49.43
2019-05-02T12:34:33.773Z,48.83
2019-05-02T12:35:33.764Z,49.43
2019-05-02T12:36:33.753Z,49.33
2019-05-02T12:37:33.759Z,49.93
2019-05-02T12:38:33.737Z,49.43
2019-05-02T12:39:33.731Z,50.74
2019-05-02T12:40:33.738Z,51.64
2019-05-02T12:41:33.703Z,53.72
2019-05-02T12:42:34.057Z,52.75
2019-05-02T12:43:33.685Z,53.25
2019-05-02T12:44:33.676Z,53.72
2019-05-02T12:45:33.790Z,52.72
2019-05-02T12:46:33.646Z,50.92
2019-05-02T12:47:33.678Z,49.11
2019-05-02T12:48:33.624Z,49.91
2019-05-02T12:49:33.619Z,50.71
2019-05-02T12:50:33.608Z,52.72
2019-05-02T12:51:33.593Z,53.72
2019-05-02T12:52:33.595Z,52.62